sensor_id;sensor_type;location;lat;lon;timestamp;P1;durP1;ratioP1;P2;durP2;ratioP2
19255;SDS011;9762;52.490;13.410;2023-05-07T00:01:55;13.07;;;9.57;;
19255;SDS011;9762;52.490;13.410;2023-05-07T00:04:22;10.97;;;9.63;;
19255;SDS011;9762;52.490;13.410;2023-05-07T00:06:48;11.20;;;10.13;;
19255;SDS011;9762;52.490;13.410;2023-05-07T00:09:13;10.93;;;9.50;;
19255;SDS011;9762;52.490;13.410;2023-05-07T00:11:39;13.00;;;9.67;;
19255;SDS011;9762;52.490;13.410;2023-05-07T00:14:05;10.70;;;9.70;;
19255;SDS011;9762;52.490;13.410;2023-05-07T00:16:30;9.67;;;8.70;;
19255;SDS011;9762;52.490;13.410;2023-05-07T00:18:56;11.13;;;9.90;;
19255;SDS011;9762;52.490;13.410;2023-05-07T00:21:22;9.83;;;8.93;;
19255;SDS011;9762;52.490;13.410;2023-05-07T00:23:47;9.13;;;8.27;;
19255;SDS011;9762;52.490;13.410;2023-05-07T00:26:13;12.07;;;8.13;;
19255;SDS011;9762;52.490;13.410;2023-05-07T00:28:39;9.07;;;8.17;;
19255;SDS011;9762;52.490;13.410;2023-05-07T00:31:04;8.63;;;7.83;;
19255;SDS011;9762;52.490;13.410;2023-05-07T00:33:30;11.77;;;7.63;;
19255;SDS011;9762;52.490;13.410;2023-05-07T00:35:56;10.27;;;8.50;;
19255;SDS011;9762;52.490;13.410;2023-05-07T00:38:21;8.23;;;7.43;;
19255;SDS011;9762;52.490;13.410;2023-05-07T00:40:47;8.33;;;7.53;;
19255;SDS011;9762;52.490;13.410;2023-05-07T00:43:12;8.60;;;7.53;;
19255;SDS011;9762;52.490;13.410;2023-05-07T00:45:38;8.37;;;7.57;;
19255;SDS011;9762;52.490;13.410;2023-05-07T00:48:04;8.10;;;7.03;;
19255;SDS011;9762;52.490;13.410;2023-05-07T00:50:30;12.73;;;8.23;;
19255;SDS011;9762;52.490;13.410;2023-05-07T00:52:56;9.20;;;7.70;;
19255;SDS011;9762;52.490;13.410;2023-05-07T00:55:22;8.27;;;7.60;;
19255;SDS011;9762;52.490;13.410;2023-05-07T00:57:48;13.33;;;8.17;;
19255;SDS011;9762;52.490;13.410;2023-05-07T01:00:15;9.10;;;8.30;;
19255;SDS011;9762;52.490;13.410;2023-05-07T01:02:41;9.60;;;7.80;;
19255;SDS011;9762;52.490;13.410;2023-05-07T01:05:09;9.17;;;8.07;;
19255;SDS011;9762;52.490;13.410;2023-05-07T01:07:37;8.93;;;8.13;;
19255;SDS011;9762;52.490;13.410;2023-05-07T01:10:05;8.10;;;7.40;;
19255;SDS011;9762;52.490;13.410;2023-05-07T01:12:32;9.27;;;8.37;;
19255;SDS011;9762;52.490;13.410;2023-05-07T01:14:59;11.33;;;7.60;;
19255;SDS011;9762;52.490;13.410;2023-05-07T01:17:25;7.50;;;6.90;;
19255;SDS011;9762;52.490;13.410;2023-05-07T01:19:50;10.97;;;7.60;;
19255;SDS011;9762;52.490;13.410;2023-05-07T01:22:23;10.03;;;7.00;;
19255;SDS011;9762;52.490;13.410;2023-05-07T01:24:56;8.20;;;7.40;;
19255;SDS011;9762;52.490;13.410;2023-05-07T01:27:24;8.67;;;7.87;;
19255;SDS011;9762;52.490;13.410;2023-05-07T01:29:50;9.00;;;8.03;;
19255;SDS011;9762;52.490;13.410;2023-05-07T01:32:16;9.43;;;8.53;;
19255;SDS011;9762;52.490;13.410;2023-05-07T01:34:46;10.00;;;9.10;;
19255;SDS011;9762;52.490;13.410;2023-05-07T01:37:14;9.03;;;8.10;;
19255;SDS011;9762;52.490;13.410;2023-05-07T01:39:40;8.60;;;7.87;;
19255;SDS011;9762;52.490;13.410;2023-05-07T01:42:07;8.40;;;7.27;;
19255;SDS011;9762;52.490;13.410;2023-05-07T01:44:32;10.80;;;7.30;;
19255;SDS011;9762;52.490;13.410;2023-05-07T01:46:58;8.47;;;7.47;;
19255;SDS011;9762;52.490;13.410;2023-05-07T01:49:24;9.07;;;8.27;;
19255;SDS011;9762;52.490;13.410;2023-05-07T01:51:50;9.47;;;8.43;;
19255;SDS011;9762;52.490;13.410;2023-05-07T01:54:16;9.73;;;8.83;;
19255;SDS011;9762;52.490;13.410;2023-05-07T01:56:42;12.07;;;9.00;;
19255;SDS011;9762;52.490;13.410;2023-05-07T01:59:07;9.03;;;8.23;;
19255;SDS011;9762;52.490;13.410;2023-05-07T02:01:34;8.50;;;7.80;;
19255;SDS011;9762;52.490;13.410;2023-05-07T02:03:59;8.90;;;8.00;;
19255;SDS011;9762;52.490;13.410;2023-05-07T02:06:25;8.50;;;7.70;;
19255;SDS011;9762;52.490;13.410;2023-05-07T02:08:50;8.70;;;7.87;;
19255;SDS011;9762;52.490;13.410;2023-05-07T02:11:16;9.03;;;7.00;;
19255;SDS011;9762;52.490;13.410;2023-05-07T02:13:42;11.23;;;7.70;;
19255;SDS011;9762;52.490;13.410;2023-05-07T02:16:07;8.73;;;7.97;;
19255;SDS011;9762;52.490;13.410;2023-05-07T02:18:33;8.93;;;8.03;;
19255;SDS011;9762;52.490;13.410;2023-05-07T02:20:58;8.67;;;7.20;;
19255;SDS011;9762;52.490;13.410;2023-05-07T02:23:24;7.80;;;7.20;;
19255;SDS011;9762;52.490;13.410;2023-05-07T02:25:50;10.70;;;8.20;;
19255;SDS011;9762;52.490;13.410;2023-05-07T02:28:16;8.43;;;7.73;;
19255;SDS011;9762;52.490;13.410;2023-05-07T02:30:41;8.07;;;7.30;;
19255;SDS011;9762;52.490;13.410;2023-05-07T02:33:07;8.33;;;7.33;;
19255;SDS011;9762;52.490;13.410;2023-05-07T02:35:33;8.53;;;7.63;;
19255;SDS011;9762;52.490;13.410;2023-05-07T02:37:59;9.43;;;7.60;;
19255;SDS011;9762;52.490;13.410;2023-05-07T02:40:24;8.00;;;7.20;;
19255;SDS011;9762;52.490;13.410;2023-05-07T02:42:50;9.33;;;6.87;;
19255;SDS011;9762;52.490;13.410;2023-05-07T02:45:15;10.33;;;8.27;;
19255;SDS011;9762;52.490;13.410;2023-05-07T02:47:41;8.30;;;7.43;;
19255;SDS011;9762;52.490;13.410;2023-05-07T02:50:07;7.67;;;6.80;;
19255;SDS011;9762;52.490;13.410;2023-05-07T02:52:33;8.77;;;8.07;;
19255;SDS011;9762;52.490;13.410;2023-05-07T02:54:58;7.70;;;7.10;;
19255;SDS011;9762;52.490;13.410;2023-05-07T02:57:24;12.30;;;7.37;;
19255;SDS011;9762;52.490;13.410;2023-05-07T02:59:49;8.43;;;7.67;;
19255;SDS011;9762;52.490;13.410;2023-05-07T03:02:15;8.00;;;7.30;;
19255;SDS011;9762;52.490;13.410;2023-05-07T03:04:41;9.83;;;7.80;;
19255;SDS011;9762;52.490;13.410;2023-05-07T03:07:07;8.63;;;7.83;;
19255;SDS011;9762;52.490;13.410;2023-05-07T03:09:32;7.37;;;6.73;;
19255;SDS011;9762;52.490;13.410;2023-05-07T03:11:58;8.47;;;7.77;;
19255;SDS011;9762;52.490;13.410;2023-05-07T03:14:24;7.37;;;6.77;;
19255;SDS011;9762;52.490;13.410;2023-05-07T03:16:49;7.27;;;6.63;;
19255;SDS011;9762;52.490;13.410;2023-05-07T03:19:15;7.37;;;6.77;;
19255;SDS011;9762;52.490;13.410;2023-05-07T03:21:41;8.47;;;7.47;;
19255;SDS011;9762;52.490;13.410;2023-05-07T03:24:06;8.10;;;7.40;;
19255;SDS011;9762;52.490;13.410;2023-05-07T03:26:32;8.00;;;7.20;;
19255;SDS011;9762;52.490;13.410;2023-05-07T03:28:58;10.63;;;8.33;;
19255;SDS011;9762;52.490;13.410;2023-05-07T03:31:23;8.00;;;7.23;;
19255;SDS011;9762;52.490;13.410;2023-05-07T03:33:53;9.20;;;7.40;;
19255;SDS011;9762;52.490;13.410;2023-05-07T03:36:20;9.90;;;7.97;;
19255;SDS011;9762;52.490;13.410;2023-05-07T03:38:46;7.70;;;7.10;;
19255;SDS011;9762;52.490;13.410;2023-05-07T03:41:12;8.30;;;7.47;;
19255;SDS011;9762;52.490;13.410;2023-05-07T03:43:37;7.43;;;6.83;;
19255;SDS011;9762;52.490;13.410;2023-05-07T03:46:03;10.07;;;7.37;;
19255;SDS011;9762;52.490;13.410;2023-05-07T03:48:29;8.87;;;8.00;;
19255;SDS011;9762;52.490;13.410;2023-05-07T03:50:55;8.03;;;7.30;;
19255;SDS011;9762;52.490;13.410;2023-05-07T03:53:22;9.00;;;7.77;;
19255;SDS011;9762;52.490;13.410;2023-05-07T03:55:47;9.03;;;8.13;;
19255;SDS011;9762;52.490;13.410;2023-05-07T03:58:13;7.80;;;7.10;;
19255;SDS011;9762;52.490;13.410;2023-05-07T04:00:38;9.23;;;7.33;;
19255;SDS011;9762;52.490;13.410;2023-05-07T04:03:05;7.20;;;6.70;;
19255;SDS011;9762;52.490;13.410;2023-05-07T04:05:31;8.80;;;8.00;;
19255;SDS011;9762;52.490;13.410;2023-05-07T04:08:00;8.80;;;8.10;;
19255;SDS011;9762;52.490;13.410;2023-05-07T04:10:26;8.30;;;7.50;;
19255;SDS011;9762;52.490;13.410;2023-05-07T04:12:53;8.20;;;7.53;;
19255;SDS011;9762;52.490;13.410;2023-05-07T04:15:18;7.20;;;6.70;;
19255;SDS011;9762;52.490;13.410;2023-05-07T04:17:44;7.70;;;6.90;;
19255;SDS011;9762;52.490;13.410;2023-05-07T04:20:10;9.00;;;7.20;;
19255;SDS011;9762;52.490;13.410;2023-05-07T04:22:39;8.00;;;7.23;;
19255;SDS011;9762;52.490;13.410;2023-05-07T04:25:05;8.23;;;7.27;;
19255;SDS011;9762;52.490;13.410;2023-05-07T04:27:31;8.83;;;7.70;;
19255;SDS011;9762;52.490;13.410;2023-05-07T04:29:57;8.13;;;7.43;;
19255;SDS011;9762;52.490;13.410;2023-05-07T04:32:22;8.20;;;7.07;;
19255;SDS011;9762;52.490;13.410;2023-05-07T04:34:49;7.80;;;7.07;;
19255;SDS011;9762;52.490;13.410;2023-05-07T04:37:15;7.80;;;6.70;;
19255;SDS011;9762;52.490;13.410;2023-05-07T04:39:41;7.07;;;6.10;;
19255;SDS011;9762;52.490;13.410;2023-05-07T04:42:07;9.10;;;6.53;;
19255;SDS011;9762;52.490;13.410;2023-05-07T04:44:34;6.97;;;6.27;;
19255;SDS011;9762;52.490;13.410;2023-05-07T04:47:00;8.60;;;6.53;;
19255;SDS011;9762;52.490;13.410;2023-05-07T04:49:25;6.33;;;5.90;;
19255;SDS011;9762;52.490;13.410;2023-05-07T04:51:51;6.40;;;5.87;;
19255;SDS011;9762;52.490;13.410;2023-05-07T04:54:17;6.70;;;6.00;;
19255;SDS011;9762;52.490;13.410;2023-05-07T04:56:42;6.80;;;6.13;;
19255;SDS011;9762;52.490;13.410;2023-05-07T04:59:08;6.27;;;5.70;;
19255;SDS011;9762;52.490;13.410;2023-05-07T05:01:34;7.00;;;6.37;;
19255;SDS011;9762;52.490;13.410;2023-05-07T05:03:59;5.97;;;5.47;;
19255;SDS011;9762;52.490;13.410;2023-05-07T05:06:25;6.43;;;5.93;;
19255;SDS011;9762;52.490;13.410;2023-05-07T05:08:51;6.83;;;6.33;;
19255;SDS011;9762;52.490;13.410;2023-05-07T05:11:16;8.77;;;6.10;;
19255;SDS011;9762;52.490;13.410;2023-05-07T05:13:42;6.33;;;5.80;;
19255;SDS011;9762;52.490;13.410;2023-05-07T05:16:08;5.83;;;5.43;;
19255;SDS011;9762;52.490;13.410;2023-05-07T05:18:35;9.27;;;5.40;;
19255;SDS011;9762;52.490;13.410;2023-05-07T05:21:19;5.87;;;5.37;;
19255;SDS011;9762;52.490;13.410;2023-05-07T05:23:51;5.73;;;5.10;;
19255;SDS011;9762;52.490;13.410;2023-05-07T05:26:23;5.87;;;5.37;;
19255;SDS011;9762;52.490;13.410;2023-05-07T05:28:49;5.77;;;5.27;;
19255;SDS011;9762;52.490;13.410;2023-05-07T05:31:18;5.70;;;5.30;;
19255;SDS011;9762;52.490;13.410;2023-05-07T05:33:49;5.57;;;5.07;;
19255;SDS011;9762;52.490;13.410;2023-05-07T05:36:15;10.27;;;5.77;;
19255;SDS011;9762;52.490;13.410;2023-05-07T05:38:41;6.37;;;5.77;;
19255;SDS011;9762;52.490;13.410;2023-05-07T05:41:06;5.73;;;5.23;;
19255;SDS011;9762;52.490;13.410;2023-05-07T05:43:32;6.23;;;5.60;;
19255;SDS011;9762;52.490;13.410;2023-05-07T05:45:58;6.40;;;5.23;;
19255;SDS011;9762;52.490;13.410;2023-05-07T05:48:24;5.70;;;5.30;;
19255;SDS011;9762;52.490;13.410;2023-05-07T05:50:49;6.20;;;5.67;;
19255;SDS011;9762;52.490;13.410;2023-05-07T05:53:15;6.23;;;5.20;;
19255;SDS011;9762;52.490;13.410;2023-05-07T05:55:41;6.27;;;5.77;;
19255;SDS011;9762;52.490;13.410;2023-05-07T05:58:07;6.37;;;5.90;;
19255;SDS011;9762;52.490;13.410;2023-05-07T06:00:33;5.97;;;5.47;;
19255;SDS011;9762;52.490;13.410;2023-05-07T06:02:59;6.53;;;5.90;;
19255;SDS011;9762;52.490;13.410;2023-05-07T06:05:25;5.93;;;5.37;;
19255;SDS011;9762;52.490;13.410;2023-05-07T06:07:50;6.23;;;5.83;;
19255;SDS011;9762;52.490;13.410;2023-05-07T06:10:16;6.73;;;6.07;;
19255;SDS011;9762;52.490;13.410;2023-05-07T06:12:41;5.57;;;5.17;;
19255;SDS011;9762;52.490;13.410;2023-05-07T06:15:07;6.90;;;5.67;;
19255;SDS011;9762;52.490;13.410;2023-05-07T06:17:33;6.37;;;5.77;;
19255;SDS011;9762;52.490;13.410;2023-05-07T06:19:59;7.43;;;6.00;;
19255;SDS011;9762;52.490;13.410;2023-05-07T06:22:25;6.37;;;5.77;;
19255;SDS011;9762;52.490;13.410;2023-05-07T06:24:50;5.70;;;5.10;;
19255;SDS011;9762;52.490;13.410;2023-05-07T06:27:16;6.53;;;5.50;;
19255;SDS011;9762;52.490;13.410;2023-05-07T06:29:41;6.23;;;5.57;;
19255;SDS011;9762;52.490;13.410;2023-05-07T06:32:10;6.87;;;5.77;;
19255;SDS011;9762;52.490;13.410;2023-05-07T06:34:37;5.77;;;5.30;;
19255;SDS011;9762;52.490;13.410;2023-05-07T06:37:03;6.40;;;5.63;;
19255;SDS011;9762;52.490;13.410;2023-05-07T06:39:29;7.97;;;6.23;;
19255;SDS011;9762;52.490;13.410;2023-05-07T06:41:54;7.13;;;6.23;;
19255;SDS011;9762;52.490;13.410;2023-05-07T06:44:20;9.40;;;6.43;;
19255;SDS011;9762;52.490;13.410;2023-05-07T06:46:45;6.97;;;6.37;;
19255;SDS011;9762;52.490;13.410;2023-05-07T06:49:14;16.43;;;14.40;;
19255;SDS011;9762;52.490;13.410;2023-05-07T06:51:40;6.20;;;5.60;;
19255;SDS011;9762;52.490;13.410;2023-05-07T06:54:06;5.80;;;5.20;;
19255;SDS011;9762;52.490;13.410;2023-05-07T06:56:32;5.10;;;4.73;;
19255;SDS011;9762;52.490;13.410;2023-05-07T06:58:59;5.63;;;5.20;;
19255;SDS011;9762;52.490;13.410;2023-05-07T07:01:25;6.20;;;5.27;;
19255;SDS011;9762;52.490;13.410;2023-05-07T07:03:51;5.17;;;4.70;;
19255;SDS011;9762;52.490;13.410;2023-05-07T07:06:16;5.47;;;5.07;;
19255;SDS011;9762;52.490;13.410;2023-05-07T07:08:42;7.60;;;5.13;;
19255;SDS011;9762;52.490;13.410;2023-05-07T07:11:08;5.40;;;4.97;;
19255;SDS011;9762;52.490;13.410;2023-05-07T07:13:35;5.03;;;4.63;;
19255;SDS011;9762;52.490;13.410;2023-05-07T07:16:00;5.00;;;4.60;;
19255;SDS011;9762;52.490;13.410;2023-05-07T07:18:26;4.87;;;4.53;;
19255;SDS011;9762;52.490;13.410;2023-05-07T07:20:52;4.87;;;4.50;;
19255;SDS011;9762;52.490;13.410;2023-05-07T07:23:18;4.80;;;4.37;;
19255;SDS011;9762;52.490;13.410;2023-05-07T07:25:43;12.40;;;11.07;;
19255;SDS011;9762;52.490;13.410;2023-05-07T07:28:09;5.47;;;5.07;;
19255;SDS011;9762;52.490;13.410;2023-05-07T07:30:36;9.13;;;3.73;;
19255;SDS011;9762;52.490;13.410;2023-05-07T07:33:02;3.50;;;3.30;;
19255;SDS011;9762;52.490;13.410;2023-05-07T07:35:31;5.73;;;3.80;;
19255;SDS011;9762;52.490;13.410;2023-05-07T07:37:57;3.40;;;3.27;;
19255;SDS011;9762;52.490;13.410;2023-05-07T07:40:23;4.00;;;3.70;;
19255;SDS011;9762;52.490;13.410;2023-05-07T07:42:49;4.07;;;3.77;;
19255;SDS011;9762;52.490;13.410;2023-05-07T07:45:15;5.80;;;4.20;;
19255;SDS011;9762;52.490;13.410;2023-05-07T07:47:41;4.00;;;3.70;;
19255;SDS011;9762;52.490;13.410;2023-05-07T07:50:07;4.27;;;3.90;;
19255;SDS011;9762;52.490;13.410;2023-05-07T07:52:33;4.10;;;3.90;;
19255;SDS011;9762;52.490;13.410;2023-05-07T07:54:59;4.00;;;3.80;;
19255;SDS011;9762;52.490;13.410;2023-05-07T07:57:25;6.60;;;3.60;;
19255;SDS011;9762;52.490;13.410;2023-05-07T07:59:51;4.63;;;3.80;;
19255;SDS011;9762;52.490;13.410;2023-05-07T08:02:16;5.07;;;3.63;;
19255;SDS011;9762;52.490;13.410;2023-05-07T08:04:42;5.47;;;3.60;;
19255;SDS011;9762;52.490;13.410;2023-05-07T08:07:11;4.17;;;3.87;;
19255;SDS011;9762;52.490;13.410;2023-05-07T08:09:39;5.40;;;4.93;;
19255;SDS011;9762;52.490;13.410;2023-05-07T08:12:05;4.27;;;3.90;;
19255;SDS011;9762;52.490;13.410;2023-05-07T08:14:32;3.67;;;3.37;;
19255;SDS011;9762;52.490;13.410;2023-05-07T08:16:58;6.50;;;3.00;;
19255;SDS011;9762;52.490;13.410;2023-05-07T08:19:23;8.47;;;7.20;;
19255;SDS011;9762;52.490;13.410;2023-05-07T08:21:49;5.07;;;4.63;;
19255;SDS011;9762;52.490;13.410;2023-05-07T08:24:15;3.30;;;3.10;;
19255;SDS011;9762;52.490;13.410;2023-05-07T08:26:41;4.20;;;3.90;;
19255;SDS011;9762;52.490;13.410;2023-05-07T08:29:08;3.40;;;3.10;;
19255;SDS011;9762;52.490;13.410;2023-05-07T08:31:33;3.90;;;3.13;;
19255;SDS011;9762;52.490;13.410;2023-05-07T08:33:59;3.63;;;3.43;;
19255;SDS011;9762;52.490;13.410;2023-05-07T08:36:25;5.20;;;3.17;;
19255;SDS011;9762;52.490;13.410;2023-05-07T08:38:51;3.10;;;2.90;;
19255;SDS011;9762;52.490;13.410;2023-05-07T08:41:17;4.97;;;3.00;;
19255;SDS011;9762;52.490;13.410;2023-05-07T08:43:43;3.53;;;3.23;;
19255;SDS011;9762;52.490;13.410;2023-05-07T08:46:13;2.83;;;2.63;;
19255;SDS011;9762;52.490;13.410;2023-05-07T08:48:43;3.40;;;3.10;;
19255;SDS011;9762;52.490;13.410;2023-05-07T08:51:12;3.47;;;3.27;;
19255;SDS011;9762;52.490;13.410;2023-05-07T08:53:40;3.93;;;3.30;;
19255;SDS011;9762;52.490;13.410;2023-05-07T08:56:07;4.33;;;3.13;;
19255;SDS011;9762;52.490;13.410;2023-05-07T08:58:33;4.57;;;4.17;;
19255;SDS011;9762;52.490;13.410;2023-05-07T09:01:00;3.00;;;2.80;;
19255;SDS011;9762;52.490;13.410;2023-05-07T09:03:31;3.50;;;3.20;;
19255;SDS011;9762;52.490;13.410;2023-05-07T09:05:57;2.60;;;2.40;;
19255;SDS011;9762;52.490;13.410;2023-05-07T09:08:26;3.73;;;2.60;;
19255;SDS011;9762;52.490;13.410;2023-05-07T09:10:52;2.37;;;2.17;;
19255;SDS011;9762;52.490;13.410;2023-05-07T09:13:18;2.87;;;2.70;;
19255;SDS011;9762;52.490;13.410;2023-05-07T09:15:44;3.10;;;2.90;;
19255;SDS011;9762;52.490;13.410;2023-05-07T09:18:10;2.90;;;2.70;;
19255;SDS011;9762;52.490;13.410;2023-05-07T09:20:37;2.70;;;2.50;;
19255;SDS011;9762;52.490;13.410;2023-05-07T09:23:03;3.10;;;2.90;;
19255;SDS011;9762;52.490;13.410;2023-05-07T09:25:29;5.97;;;3.47;;
19255;SDS011;9762;52.490;13.410;2023-05-07T09:27:56;2.73;;;2.63;;
19255;SDS011;9762;52.490;13.410;2023-05-07T09:30:21;3.03;;;2.70;;
19255;SDS011;9762;52.490;13.410;2023-05-07T09:32:47;2.63;;;2.50;;
19255;SDS011;9762;52.490;13.410;2023-05-07T09:35:16;3.10;;;2.70;;
19255;SDS011;9762;52.490;13.410;2023-05-07T09:37:42;4.43;;;3.00;;
19255;SDS011;9762;52.490;13.410;2023-05-07T09:40:08;4.40;;;3.20;;
19255;SDS011;9762;52.490;13.410;2023-05-07T09:42:49;2.90;;;2.60;;
19255;SDS011;9762;52.490;13.410;2023-05-07T09:45:36;3.33;;;2.87;;
19255;SDS011;9762;52.490;13.410;2023-05-07T09:48:01;5.53;;;2.87;;
19255;SDS011;9762;52.490;13.410;2023-05-07T09:50:38;2.87;;;2.63;;
19255;SDS011;9762;52.490;13.410;2023-05-07T09:53:10;3.30;;;2.80;;
19255;SDS011;9762;52.490;13.410;2023-05-07T09:55:37;5.77;;;2.90;;
19255;SDS011;9762;52.490;13.410;2023-05-07T09:58:03;2.43;;;2.33;;
19255;SDS011;9762;52.490;13.410;2023-05-07T10:00:31;2.83;;;2.63;;
19255;SDS011;9762;52.490;13.410;2023-05-07T10:02:57;2.40;;;2.23;;
19255;SDS011;9762;52.490;13.410;2023-05-07T10:05:24;5.60;;;2.50;;
19255;SDS011;9762;52.490;13.410;2023-05-07T10:07:51;2.43;;;2.33;;
19255;SDS011;9762;52.490;13.410;2023-05-07T10:10:19;2.37;;;2.20;;
19255;SDS011;9762;52.490;13.410;2023-05-07T10:12:44;2.40;;;2.20;;
19255;SDS011;9762;52.490;13.410;2023-05-07T10:15:11;2.73;;;2.63;;
19255;SDS011;9762;52.490;13.410;2023-05-07T10:17:37;4.67;;;4.37;;
19255;SDS011;9762;52.490;13.410;2023-05-07T10:20:04;4.63;;;4.30;;
19255;SDS011;9762;52.490;13.410;2023-05-07T10:23:04;4.23;;;3.03;;
19255;SDS011;9762;52.490;13.410;2023-05-07T10:25:28;4.00;;;3.70;;
19255;SDS011;9762;52.490;13.410;2023-05-07T10:27:55;4.13;;;3.80;;
19255;SDS011;9762;52.490;13.410;2023-05-07T10:33:15;2.30;;;2.10;;
19255;SDS011;9762;52.490;13.410;2023-05-07T10:35:45;2.93;;;2.73;;
19255;SDS011;9762;52.490;13.410;2023-05-07T10:38:12;2.97;;;2.73;;
19255;SDS011;9762;52.490;13.410;2023-05-07T10:40:38;2.20;;;2.10;;
19255;SDS011;9762;52.490;13.410;2023-05-07T10:43:04;4.63;;;1.83;;
19255;SDS011;9762;52.490;13.410;2023-05-07T10:45:31;3.30;;;2.50;;
19255;SDS011;9762;52.490;13.410;2023-05-07T10:48:13;44.30;;;31.13;;
19255;SDS011;9762;52.490;13.410;2023-05-07T10:50:40;3.30;;;2.27;;
19255;SDS011;9762;52.490;13.410;2023-05-07T10:55:46;5.97;;;2.40;;
19255;SDS011;9762;52.490;13.410;2023-05-07T11:00:48;2.10;;;2.00;;
19255;SDS011;9762;52.490;13.410;2023-05-07T11:03:14;3.67;;;1.90;;
19255;SDS011;9762;52.490;13.410;2023-05-07T11:05:40;3.47;;;1.97;;
19255;SDS011;9762;52.490;13.410;2023-05-07T11:08:07;24.80;;;15.60;;
19255;SDS011;9762;52.490;13.410;2023-05-07T11:13:16;2.40;;;2.30;;
19255;SDS011;9762;52.490;13.410;2023-05-07T11:15:44;2.10;;;2.00;;
19255;SDS011;9762;52.490;13.410;2023-05-07T11:18:11;3.47;;;1.53;;
19255;SDS011;9762;52.490;13.410;2023-05-07T11:20:48;3.63;;;1.80;;
19255;SDS011;9762;52.490;13.410;2023-05-07T11:26:00;2.00;;;1.90;;
19255;SDS011;9762;52.490;13.410;2023-05-07T11:28:27;2.00;;;1.90;;
19255;SDS011;9762;52.490;13.410;2023-05-07T11:30:53;3.70;;;1.80;;
19255;SDS011;9762;52.490;13.410;2023-05-07T11:33:19;2.17;;;2.07;;
19255;SDS011;9762;52.490;13.410;2023-05-07T11:35:45;2.43;;;1.93;;
19255;SDS011;9762;52.490;13.410;2023-05-07T11:38:11;2.15;;;2.03;;
19255;SDS011;9762;52.490;13.410;2023-05-07T11:40:50;3.88;;;2.25;;
19255;SDS011;9762;52.490;13.410;2023-05-07T11:43:16;4.25;;;1.95;;
19255;SDS011;9762;52.490;13.410;2023-05-07T11:45:42;1.60;;;1.60;;
19255;SDS011;9762;52.490;13.410;2023-05-07T11:48:08;1.80;;;1.80;;
19255;SDS011;9762;52.490;13.410;2023-05-07T11:50:33;2.30;;;2.20;;
19255;SDS011;9762;52.490;13.410;2023-05-07T11:52:59;3.30;;;2.90;;
19255;SDS011;9762;52.490;13.410;2023-05-07T11:55:24;2.60;;;2.40;;
19255;SDS011;9762;52.490;13.410;2023-05-07T11:57:51;2.63;;;2.30;;
19255;SDS011;9762;52.490;13.410;2023-05-07T12:00:17;2.88;;;2.67;;
19255;SDS011;9762;52.490;13.410;2023-05-07T12:02:43;5.32;;;2.70;;
19255;SDS011;9762;52.490;13.410;2023-05-07T12:05:10;2.10;;;2.00;;
19255;SDS011;9762;52.490;13.410;2023-05-07T12:07:36;1.90;;;1.90;;
19255;SDS011;9762;52.490;13.410;2023-05-07T12:10:05;2.30;;;2.20;;
19255;SDS011;9762;52.490;13.410;2023-05-07T12:12:37;1.90;;;1.80;;
19255;SDS011;9762;52.490;13.410;2023-05-07T12:15:09;1.98;;;1.98;;
19255;SDS011;9762;52.490;13.410;2023-05-07T12:17:35;1.70;;;1.60;;
19255;SDS011;9762;52.490;13.410;2023-05-07T12:20:01;1.80;;;1.70;;
19255;SDS011;9762;52.490;13.410;2023-05-07T12:22:27;2.10;;;2.00;;
19255;SDS011;9762;52.490;13.410;2023-05-07T12:24:58;2.10;;;2.00;;
19255;SDS011;9762;52.490;13.410;2023-05-07T12:27:25;1.90;;;1.83;;
19255;SDS011;9762;52.490;13.410;2023-05-07T12:29:51;1.73;;;1.63;;
19255;SDS011;9762;52.490;13.410;2023-05-07T12:32:17;2.55;;;2.35;;
19255;SDS011;9762;52.490;13.410;2023-05-07T12:34:44;3.17;;;2.30;;
19255;SDS011;9762;52.490;13.410;2023-05-07T12:37:10;1.80;;;1.80;;
19255;SDS011;9762;52.490;13.410;2023-05-07T12:39:37;1.65;;;1.65;;
19255;SDS011;9762;52.490;13.410;2023-05-07T12:42:03;1.80;;;1.80;;
19255;SDS011;9762;52.490;13.410;2023-05-07T12:44:30;1.48;;;1.48;;
19255;SDS011;9762;52.490;13.410;2023-05-07T12:46:57;2.53;;;2.08;;
19255;SDS011;9762;52.490;13.410;2023-05-07T12:49:26;1.73;;;1.58;;
19255;SDS011;9762;52.490;13.410;2023-05-07T12:51:51;1.63;;;1.52;;
19255;SDS011;9762;52.490;13.410;2023-05-07T12:54:28;2.35;;;1.60;;
19255;SDS011;9762;52.490;13.410;2023-05-07T12:57:04;5.93;;;5.35;;
19255;SDS011;9762;52.490;13.410;2023-05-07T12:59:40;3.50;;;3.20;;
19255;SDS011;9762;52.490;13.410;2023-05-07T13:02:07;1.58;;;1.58;;
19255;SDS011;9762;52.490;13.410;2023-05-07T13:04:34;1.75;;;1.75;;
19255;SDS011;9762;52.490;13.410;2023-05-07T13:07:00;2.40;;;1.65;;
19255;SDS011;9762;52.490;13.410;2023-05-07T13:09:26;2.00;;;1.60;;
19255;SDS011;9762;52.490;13.410;2023-05-07T13:11:54;1.80;;;1.70;;
19255;SDS011;9762;52.490;13.410;2023-05-07T13:14:20;2.30;;;1.92;;
19255;SDS011;9762;52.490;13.410;2023-05-07T13:16:46;1.77;;;1.77;;
19255;SDS011;9762;52.490;13.410;2023-05-07T13:19:12;1.80;;;1.80;;
19255;SDS011;9762;52.490;13.410;2023-05-07T13:21:37;2.10;;;2.00;;
19255;SDS011;9762;52.490;13.410;2023-05-07T13:24:03;1.98;;;1.73;;
19255;SDS011;9762;52.490;13.410;2023-05-07T13:26:30;1.60;;;1.60;;
19255;SDS011;9762;52.490;13.410;2023-05-07T13:28:56;2.25;;;2.15;;
19255;SDS011;9762;52.490;13.410;2023-05-07T13:31:22;1.65;;;1.58;;
19255;SDS011;9762;52.490;13.410;2023-05-07T13:33:48;1.90;;;1.77;;
19255;SDS011;9762;52.490;13.410;2023-05-07T13:36:14;1.50;;;1.50;;
19255;SDS011;9762;52.490;13.410;2023-05-07T13:38:40;3.75;;;1.58;;
19255;SDS011;9762;52.490;13.410;2023-05-07T13:41:05;4.43;;;1.60;;
19255;SDS011;9762;52.490;13.410;2023-05-07T13:43:31;1.40;;;1.40;;
19255;SDS011;9762;52.490;13.410;2023-05-07T13:46:00;1.95;;;1.52;;
19255;SDS011;9762;52.490;13.410;2023-05-07T13:48:26;3.75;;;1.40;;
19255;SDS011;9762;52.490;13.410;2023-05-07T13:50:51;2.08;;;1.50;;
19255;SDS011;9762;52.490;13.410;2023-05-07T13:53:17;4.43;;;1.60;;
19255;SDS011;9762;52.490;13.410;2023-05-07T13:55:43;1.88;;;1.88;;
19255;SDS011;9762;52.490;13.410;2023-05-07T13:58:09;3.83;;;1.98;;
19255;SDS011;9762;52.490;13.410;2023-05-07T14:00:35;2.15;;;2.05;;
19255;SDS011;9762;52.490;13.410;2023-05-07T14:03:01;2.72;;;1.67;;
19255;SDS011;9762;52.490;13.410;2023-05-07T14:05:28;2.42;;;2.05;;
19255;SDS011;9762;52.490;13.410;2023-05-07T14:07:54;3.00;;;1.77;;
19255;SDS011;9762;52.490;13.410;2023-05-07T14:10:21;1.90;;;1.80;;
19255;SDS011;9762;52.490;13.410;2023-05-07T14:12:47;2.85;;;2.67;;
19255;SDS011;9762;52.490;13.410;2023-05-07T14:15:12;1.77;;;1.70;;
19255;SDS011;9762;52.490;13.410;2023-05-07T14:17:38;2.28;;;1.90;;
19255;SDS011;9762;52.490;13.410;2023-05-07T14:20:04;2.28;;;1.50;;
19255;SDS011;9762;52.490;13.410;2023-05-07T14:22:31;1.45;;;1.45;;
19255;SDS011;9762;52.490;13.410;2023-05-07T14:24:57;1.73;;;1.63;;
19255;SDS011;9762;52.490;13.410;2023-05-07T14:27:23;3.38;;;1.90;;
19255;SDS011;9762;52.490;13.410;2023-05-07T14:29:48;9.02;;;2.22;;
19255;SDS011;9762;52.490;13.410;2023-05-07T14:32:16;3.72;;;1.90;;
19255;SDS011;9762;52.490;13.410;2023-05-07T14:34:43;1.83;;;1.70;;
19255;SDS011;9762;52.490;13.410;2023-05-07T14:37:09;1.95;;;1.85;;
19255;SDS011;9762;52.490;13.410;2023-05-07T14:39:35;2.92;;;1.85;;
19255;SDS011;9762;52.490;13.410;2023-05-07T14:42:00;4.22;;;1.83;;
19255;SDS011;9762;52.490;13.410;2023-05-07T14:44:26;1.75;;;1.58;;
19255;SDS011;9762;52.490;13.410;2023-05-07T14:46:52;1.38;;;1.38;;
19255;SDS011;9762;52.490;13.410;2023-05-07T14:49:17;1.58;;;1.58;;
19255;SDS011;9762;52.490;13.410;2023-05-07T14:51:44;1.85;;;1.50;;
19255;SDS011;9762;52.490;13.410;2023-05-07T14:54:10;7.13;;;3.35;;
19255;SDS011;9762;52.490;13.410;2023-05-07T14:56:36;2.88;;;2.67;;